Time;durP1;ratioP1;P1;durP2;ratioP2;P2;SDS_P1;SDS_P2;PMS_P1;PMS_P2;Temp;Humidity;BMP_temperature;BMP_pressure;BME280_temperature;BME280_humidity;BME280_pressure;Samples;Min_cycle;Max_cycle;Signal;HPM_P1;HPM_P2
2022/04/29 00:01:17;;;;;;;13.07;7.93;;;;;;;9.34;58.48;101093.34;10309943;28;20170;-76
2022/04/29 00:06:20;;;;;;;10.63;7.38;;;;;;;9.09;59.04;101096.91;10325045;28;20282;-77
2022/04/29 00:11:21;;;;;;;10.63;7.75;;;;;;;9.19;59.05;101085.22;10311172;28;20132;-76
2022/04/29 00:16:25;;;;;;;9.95;7.20;;;;;;;9.22;59.07;101078.13;10304740;28;20140;-77
2022/04/29 00:21:27;;;;;;;10.80;7.13;;;;;;;9.24;58.85;101075.47;10311567;28;20053;-76
2022/04/29 00:26:29;;;;;;;13.50;7.95;;;;;;;9.08;59.21;101066.47;10313886;28;20104;-77
2022/04/29 00:31:31;;;;;;;16.10;8.45;;;;;;;9.00;59.70;101069.34;10307908;28;20090;-76
2022/04/29 00:36:33;;;;;;;12.73;8.30;;;;;;;8.92;59.88;101063.56;10340322;28;20144;-77
2022/04/29 00:41:34;;;;;;;11.15;8.02;;;;;;;8.84;59.88;101073.41;10328193;28;20496;-76
2022/04/29 00:46:41;;;;;;;10.27;8.00;;;;;;;8.90;59.93;101062.75;10339745;28;20127;-76
2022/04/29 00:51:46;;;;;;;12.05;8.45;;;;;;;8.86;59.89;101055.94;10338837;28;20085;-77
2022/04/29 00:56:51;;;;;;;12.10;7.85;;;;;;;8.80;60.12;101054.41;10329663;28;20061;-77
2022/04/29 01:01:55;;;;;;;11.48;8.20;;;;;;;8.79;60.07;101049.25;10316771;28;20473;-77
2022/04/29 01:06:57;;;;;;;12.48;8.63;;;;;;;8.66;60.29;101048.81;10312181;28;20518;-76
2022/04/29 01:11:59;;;;;;;10.63;8.07;;;;;;;8.65;60.38;101048.84;10317842;28;20500;-76
2022/04/29 01:17:01;;;;;;;14.25;8.35;;;;;;;8.67;60.25;101049.66;10327123;28;20096;-77
2022/04/29 01:22:04;;;;;;;13.63;8.13;;;;;;;8.66;60.30;101034.94;10336999;28;20057;-77
2022/04/29 01:27:13;;;;;;;12.48;9.07;;;;;;;8.56;60.83;101033.53;10311472;28;20142;-76
2022/04/29 01:32:15;;;;;;;11.20;8.57;;;;;;;8.55;60.55;101037.91;10318398;28;20121;-76
2022/04/29 01:37:16;;;;;;;12.05;8.05;;;;;;;8.48;60.79;101028.59;10331820;28;20466;-77
2022/04/29 01:42:18;;;;;;;10.18;8.32;;;;;;;8.48;60.64;101022.53;10336675;28;20463;-77
2022/04/29 01:47:27;;;;;;;10.63;7.70;;;;;;;8.41;60.73;101032.28;10329812;28;20058;-77
2022/04/29 01:52:28;;;;;;;10.80;8.65;;;;;;;8.39;60.67;101025.41;10336404;28;20124;-77
2022/04/29 01:57:30;;;;;;;11.32;8.38;;;;;;;8.27;60.85;101034.50;10335047;28;20054;-77
2022/04/29 02:02:32;;;;;;;12.32;9.45;;;;;;;8.17;61.14;101035.72;10330240;28;20057;-77
2022/04/29 02:07:34;;;;;;;12.95;9.82;;;;;;;8.06;61.29;101031.72;10333835;28;20064;-76
2022/04/29 02:12:36;;;;;;;12.18;9.20;;;;;;;8.04;61.36;101029.13;10314526;28;20058;-76
2022/04/29 02:17:38;;;;;;;13.35;9.70;;;;;;;7.99;61.53;101021.50;10325402;28;20558;-76
2022/04/29 02:22:40;;;;;;;15.32;9.38;;;;;;;8.00;61.46;101017.13;10340711;28;20054;-76
2022/04/29 02:27:42;;;;;;;16.40;9.90;;;;;;;7.90;61.55;101016.56;10315359;28;20121;-76
2022/04/29 02:32:44;;;;;;;11.98;9.60;;;;;;;7.80;61.80;101009.94;10354734;28;20380;-77
2022/04/29 02:37:46;;;;;;;15.73;10.00;;;;;;;7.74;61.99;101014.47;10336190;28;20567;-76
2022/04/29 02:42:48;;;;;;;12.50;9.55;;;;;;;7.73;62.00;101013.63;10329043;28;20054;-77
2022/04/29 02:48:15;;;;;;;12.48;8.85;;;;;;;7.65;62.29;101009.56;10326497;28;20045;-76
2022/04/29 02:53:17;;;;;;;14.30;8.45;;;;;;;7.60;62.13;101001.91;10338860;28;20054;-77
2022/04/29 02:58:18;;;;;;;13.77;9.88;;;;;;;7.59;62.00;101004.56;10342231;28;20471;-77
2022/04/29 03:03:20;;;;;;;13.00;9.50;;;;;;;7.52;61.94;101001.28;10321744;28;20577;-77
2022/04/29 03:08:22;;;;;;;15.18;8.98;;;;;;;7.50;61.91;100997.88;10338617;28;20050;-77
2022/04/29 03:13:24;;;;;;;15.60;9.70;;;;;;;7.42;62.22;100989.44;10328814;28;20701;-77
2022/04/29 03:18:26;;;;;;;11.02;8.80;;;;;;;7.33;62.22;100994.91;10317060;28;20085;-77
2022/04/29 03:23:27;;;;;;;15.82;9.95;;;;;;;7.20;62.27;100990.97;10339932;28;20541;-77
2022/04/29 03:28:29;;;;;;;11.50;9.15;;;;;;;7.18;62.43;100980.59;10334133;28;20565;-77
2022/04/29 03:33:32;;;;;;;13.02;9.32;;;;;;;7.15;62.47;100985.03;10321786;28;20472;-77
2022/04/29 03:38:35;;;;;;;15.60;10.45;;;;;;;7.12;62.48;100982.56;10319920;28;20148;-77
2022/04/29 03:43:37;;;;;;;13.55;9.40;;;;;;;7.13;62.34;100986.84;10321308;28;20096;-77
2022/04/29 03:53:59;;;;;;;14.32;9.95;;;;;;;7.08;62.39;100980.94;10330256;28;20161;-77
2022/04/29 03:59:02;;;;;;;17.13;9.73;;;;;;;7.13;62.45;100987.69;10321315;28;20054;-77
2022/04/29 04:04:04;;;;;;;11.88;9.52;;;;;;;7.10;62.54;100989.53;10330512;28;20541;-78
2022/04/29 04:09:05;;;;;;;15.73;10.82;;;;;;;7.09;62.52;100995.63;10319813;28;20468;-77
2022/04/29 04:14:08;;;;;;;13.30;9.63;;;;;;;7.09;62.48;100993.88;10321261;28;20049;-77
2022/04/29 04:19:10;;;;;;;13.27;9.30;;;;;;;7.04;62.35;100989.72;10319745;28;20054;-77
2022/04/29 04:24:12;;;;;;;14.25;10.07;;;;;;;7.17;61.98;100996.25;10312473;28;20050;-77
2022/04/29 04:29:13;;;;;;;11.02;8.93;;;;;;;7.19;62.04;100997.06;10337072;28;20078;-77
2022/04/29 04:39:35;;;;;;;13.90;10.27;;;;;;;7.58;61.44;100997.63;10327213;28;20547;-77
2022/04/29 04:44:38;;;;;;;13.25;8.75;;;;;;;8.13;60.59;101008.06;10308294;28;20388;-77
2022/04/29 04:49:40;;;;;;;12.32;9.55;;;;;;;9.14;58.52;100995.78;10316055;28;20164;-78
2022/04/29 04:54:42;;;;;;;12.35;8.35;;;;;;;9.68;57.00;101000.72;10317911;28;20074;-78
2022/04/29 04:59:44;;;;;;;9.95;8.15;;;;;;;9.27;57.46;101005.72;10328228;28;20143;-77
2022/04/29 05:04:46;;;;;;;13.20;9.32;;;;;;;8.84;58.04;101005.59;10321260;28;20570;-78
2022/04/29 05:09:48;;;;;;;12.50;9.93;;;;;;;8.49;59.09;101001.59;10323704;28;20504;-77
2022/04/29 05:14:50;;;;;;;14.15;10.30;;;;;;;8.36;59.27;101009.91;10323983;28;20109;-77
2022/04/29 05:19:52;;;;;;;11.05;9.32;;;;;;;8.31;59.41;101014.41;10325687;28;20419;-78
2022/04/29 05:24:53;;;;;;;12.32;9.80;;;;;;;8.22;59.56;101012.13;10321671;28;20100;-78
2022/04/29 05:29:55;;;;;;;12.77;9.32;;;;;;;8.20;59.77;101017.34;10346219;28;20066;-77
2022/04/29 05:34:59;;;;;;;13.23;9.07;;;;;;;8.32;59.91;101021.34;10315464;28;20089;-77
2022/04/29 05:45:21;;;;;;;11.60;9.15;;;;;;;8.51;59.58;101010.22;10310395;28;20085;-77
2022/04/29 05:50:23;;;;;;;12.70;9.25;;;;;;;8.71;59.43;101006.91;10344378;28;20084;-77
2022/04/29 05:55:25;;;;;;;12.85;9.55;;;;;;;8.91;59.25;101001.00;10327927;28;20057;-78
2022/04/29 06:00:46;;;;;;;15.88;9.63;;;;;;;9.07;58.77;101010.84;10328951;28;20435;-77
2022/04/29 06:05:48;;;;;;;13.93;9.45;;;;;;;9.24;58.60;101018.88;10348441;28;20860;-78
2022/04/29 06:10:50;;;;;;;14.02;10.05;;;;;;;9.40;58.65;101004.34;10339368;28;20080;-77
2022/04/29 06:15:52;;;;;;;11.65;9.00;;;;;;;9.66;58.14;100995.56;10344203;28;20112;-77
2022/04/29 06:20:54;;;;;;;14.27;10.23;;;;;;;9.93;57.40;100999.66;10317555;28;20089;-77
2022/04/29 06:25:56;;;;;;;13.68;9.65;;;;;;;10.10;57.20;100996.38;10318769;28;20464;-77
2022/04/29 06:30:58;;;;;;;15.13;10.05;;;;;;;10.38;56.75;100992.56;10328462;28;20109;-77
2022/04/29 06:36:01;;;;;;;14.45;9.98;;;;;;;10.38;56.61;100995.19;10333840;28;20084;-77
2022/04/29 06:41:03;;;;;;;15.68;10.10;;;;;;;10.59;56.38;100998.66;10322052;28;20085;-77
2022/04/29 06:46:04;;;;;;;14.30;9.40;;;;;;;10.76;56.20;101001.41;10331943;28;20108;-77
2022/04/29 06:51:06;;;;;;;14.35;9.65;;;;;;;11.28;55.30;101000.81;10335172;28;20064;-77
2022/04/29 06:56:13;;;;;;;14.23;9.38;;;;;;;11.71;54.55;100998.78;10325944;28;20054;-77
2022/04/29 07:01:14;;;;;;;15.45;9.18;;;;;;;11.91;54.04;101003.94;10312684;28;20140;-77
2022/04/29 07:06:17;;;;;;;11.88;9.18;;;;;;;12.36;53.44;101006.09;10333329;28;20053;-77
2022/04/29 07:11:19;;;;;;;14.07;8.85;;;;;;;13.19;51.89;100994.69;10309036;28;20058;-77
2022/04/29 07:16:20;;;;;;;14.90;8.85;;;;;;;13.61;51.20;100983.69;10312857;28;20042;-77
2022/04/29 07:21:22;;;;;;;13.32;9.02;;;;;;;13.89;49.76;100993.47;10315151;28;20054;-77
2022/04/29 07:26:25;;;;;;;12.93;8.95;;;;;;;13.93;49.53;100985.34;10342090;28;20419;-77
2022/04/29 07:31:26;;;;;;;13.65;9.45;;;;;;;14.28;48.73;100984.16;10339022;28;20131;-77
2022/04/29 07:41:49;;;;;;;15.60;9.43;;;;;;;14.88;45.96;100981.50;10326237;28;20054;-77
2022/04/29 07:46:50;;;;;;;15.70;9.65;;;;;;;14.56;45.40;100978.16;10332074;28;20280;-77
2022/04/29 07:51:52;;;;;;;17.27;9.80;;;;;;;14.48;44.93;100975.09;10318051;28;20145;-77
2022/04/29 07:56:54;;;;;;;15.88;10.40;;;;;;;14.41;45.50;100977.22;10332083;28;20050;-77
2022/04/29 08:01:56;;;;;;;15.23;10.05;;;;;;;14.24;44.86;100977.38;10335936;28;20054;-77
2022/04/29 08:06:58;;;;;;;14.02;10.38;;;;;;;14.50;45.22;100976.72;10315402;28;20097;-77
2022/04/29 08:12:06;;;;;;;13.73;9.55;;;;;;;15.14;44.23;100978.09;10311649;28;20463;-77
2022/04/29 08:17:07;;;;;;;16.83;9.82;;;;;;;15.59;43.58;100967.28;10313246;28;20089;-77
2022/04/29 08:22:09;;;;;;;17.10;10.55;;;;;;;15.05;43.68;100970.75;10334532;28;20467;-77
2022/04/29 08:27:11;;;;;;;18.90;10.25;;;;;;;15.08;43.64;100970.56;10328279;28;20498;-77
2022/04/29 08:32:13;;;;;;;13.70;9.73;;;;;;;15.20;43.57;100969.81;10344291;28;20567;-77
2022/04/29 08:37:15;;;;;;;13.52;9.73;;;;;;;15.43;42.85;100964.78;10318662;28;20085;-77
2022/04/29 08:42:18;;;;;;;16.38;10.77;;;;;;;15.39;42.57;100965.91;10316611;28;20054;-77
2022/04/29 08:47:21;;;;;;;17.52;9.90;;;;;;;15.63;43.02;100962.69;10337849;28;20132;-77
2022/04/29 08:52:23;;;;;;;21.52;10.02;;;;;;;15.66;42.34;100963.34;10333264;28;20097;-77
2022/04/29 09:02:47;;;;;;;17.45;9.85;;;;;;;15.48;43.36;100959.22;10336006;28;20062;-77
2022/04/29 09:07:57;;;;;;;16.05;9.43;;;;;;;15.92;42.28;100954.56;10328206;28;20058;-77
2022/04/29 09:13:29;;;;;;;17.50;9.50;;;;;;;16.33;41.51;100949.19;10309634;28;20066;-77
2022/04/29 09:18:46;;;;;;;14.57;9.30;;;;;;;16.39;41.44;100948.75;10331805;28;20046;-77
2022/04/29 09:23:55;;;;;;;18.67;10.02;;;;;;;17.05;40.00;100943.28;10322139;28;20058;-77
2022/04/29 09:29:19;;;;;;;18.73;9.45;;;;;;;17.27;39.25;100939.97;10316608;28;20405;-77
2022/04/29 09:34:22;;;;;;;17.63;9.40;;;;;;;17.54;39.86;100930.09;10333540;28;20057;-77
2022/04/29 09:39:27;;;;;;;15.73;9.25;;;;;;;18.42;38.33;100921.69;10326448;28;20124;-77
2022/04/29 09:44:34;;;;;;;15.85;8.93;;;;;;;18.39;37.11;100922.75;10343450;28;20173;-77
2022/04/29 09:49:36;;;;;;;14.85;8.80;;;;;;;18.27;38.42;100931.63;10325862;28;20129;-77
2022/04/29 09:54:38;;;;;;;12.98;8.98;;;;;;;18.30;37.94;100926.09;10324334;28;20097;-77
2022/04/29 09:59:44;;;;;;;14.02;8.70;;;;;;;18.58;37.84;100916.88;10336780;28;20050;-77
2022/04/29 10:04:47;;;;;;;17.75;9.23;;;;;;;18.85;37.70;100909.41;10329762;28;20081;-77
2022/04/29 10:09:52;;;;;;;14.75;8.75;;;;;;;18.56;36.89;100905.56;10329435;28;20054;-77
2022/04/29 10:14:59;;;;;;;15.35;8.50;;;;;;;17.97;37.30;100896.00;10317531;28;20436;-77
2022/04/29 10:25:29;;;;;;;16.55;9.02;;;;;;;18.23;38.26;100889.59;10343690;28;20619;-75
2022/04/29 10:30:33;;;;;;;12.45;8.13;;;;;;;18.09;37.47;100889.78;10315259;28;20085;-76
2022/04/29 10:35:47;;;;;;;14.38;8.30;;;;;;;18.16;37.39;100883.91;10309909;28;20065;-75
2022/04/29 10:41:23;;;;;;;14.35;8.63;;;;;;;18.92;35.55;100872.66;10317339;28;20060;-75
2022/04/29 10:46:25;;;;;;;18.80;8.43;;;;;;;18.92;36.77;100870.88;10330372;28;20054;-75
2022/04/29 10:51:27;;;;;;;15.60;8.85;;;;;;;19.17;36.01;100864.47;10342803;28;20085;-77
2022/04/29 10:56:32;;;;;;;15.02;8.55;;;;;;;19.36;37.33;100864.66;10312489;28;20078;-77
2022/04/29 11:01:35;;;;;;;16.80;8.00;;;;;;;18.73;36.92;100864.50;10341261;28;20054;-77
2022/04/29 11:06:38;;;;;;;10.73;7.90;;;;;;;18.86;37.25;100859.91;10327592;28;20049;-77
2022/04/29 11:11:43;;;;;;;14.77;6.80;;;;;;;19.65;36.51;100849.84;10309053;28;20081;-77
2022/04/29 11:16:53;;;;;;;13.48;7.13;;;;;;;20.12;34.95;100840.56;10306664;28;20104;-77
2022/04/29 11:27:27;;;;;;;10.73;6.47;;;;;;;19.83;35.19;100831.56;10345981;28;20015;-76
2022/04/29 11:32:30;;;;;;;13.85;6.60;;;;;;;20.42;34.67;100819.34;10338660;28;20059;-75
2022/04/29 11:37:34;;;;;;;10.32;6.50;;;;;;;20.06;35.53;100818.03;10323057;28;20487;-75
2022/04/29 11:42:36;;;;;;;13.30;6.75;;;;;;;19.74;36.45;100819.03;10306152;28;20062;-76
2022/04/29 11:47:37;;;;;;;13.88;6.95;;;;;;;19.74;35.52;100814.59;10319802;28;20122;-77
2022/04/29 11:52:40;;;;;;;14.50;6.38;;;;;;;19.98;36.03;100811.69;10331900;28;20169;-78
2022/04/29 11:57:46;;;;;;;16.27;6.30;;;;;;;20.12;35.34;100795.41;10344371;28;20607;-76
2022/04/29 12:02:50;;;;;;;12.57;6.43;;;;;;;19.86;35.00;100794.16;10325972;28;20077;-76
2022/04/29 12:07:57;;;;;;;10.20;5.25;;;;;;;19.79;34.87;100788.47;10333726;28;20053;-76
2022/04/29 12:13:02;;;;;;;12.35;6.05;;;;;;;20.09;34.74;100779.78;10312664;28;20050;-76
2022/04/29 12:18:09;;;;;;;12.77;6.57;;;;;;;20.08;35.41;100770.09;10308839;28;20492;-76
2022/04/29 12:23:22;;;;;;;11.85;5.60;;;;;;;20.20;35.36;100767.25;10316724;28;20061;-76
2022/04/29 12:28:27;;;;;;;10.73;5.43;;;;;;;20.37;32.07;100768.44;10328927;28;20057;-76
2022/04/29 12:38:49;;;;;;;;;;;;;;;20.23;29.95;100760.81;10321106;28;20050;-76
2022/04/29 12:43:52;;;;;;;11.60;5.28;;;;;;;20.88;32.34;100744.41;10310834;28;20387;-76
2022/04/29 12:48:54;;;;;;;11.65;5.15;;;;;;;21.07;29.93;100747.91;10312854;28;20050;-76
2022/04/29 12:53:56;;;;;;;10.70;5.70;;;;;;;21.40;29.20;100744.03;10317333;28;20467;-76
2022/04/29 12:58:59;;;;;;;9.93;4.75;;;;;;;21.74;29.38;100729.25;10339237;28;20301;-77
2022/04/29 13:04:01;;;;;;;8.07;4.20;;;;;;;22.16;28.49;100721.75;10332833;28;20084;-76
2022/04/29 13:09:11;;;;;;;7.45;4.30;;;;;;;21.24;30.04;100721.59;10317304;28;20559;-76
2022/04/29 13:14:14;;;;;;;5.90;3.50;;;;;;;20.86;28.20;100717.09;10316278;28;20081;-76
2022/04/29 13:19:16;;;;;;;6.15;3.53;;;;;;;21.02;28.36;100707.63;10332915;28;20086;-77
2022/04/29 13:24:18;;;;;;;5.05;3.05;;;;;;;20.94;29.76;100704.81;10310280;28;20140;-76
2022/04/29 13:29:19;;;;;;;10.52;3.55;;;;;;;21.12;28.51;100696.13;10315557;28;20512;-76
2022/04/29 13:34:21;;;;;;;6.18;3.22;;;;;;;21.62;26.71;100685.16;10324029;28;20053;-76
2022/04/29 13:39:23;;;;;;;11.27;3.13;;;;;;;21.64;25.84;100685.84;10321498;28;20464;-77
2022/04/29 13:44:25;;;;;;;8.32;3.25;;;;;;;21.47;25.92;100678.63;10316552;28;20112;-76
2022/04/29 13:49:27;;;;;;;9.05;3.20;;;;;;;21.83;25.83;100676.97;10350507;28;20135;-76
2022/04/29 13:54:28;;;;;;;6.72;3.20;;;;;;;21.94;26.19;100674.13;10318947;28;20536;-77
2022/04/29 13:59:32;;;;;;;5.07;3.30;;;;;;;21.86;25.04;100660.72;10329529;28;20108;-77
2022/04/29 14:04:33;;;;;;;5.38;3.38;;;;;;;21.82;26.73;100648.69;10344456;28;20508;-77
2022/04/29 14:09:35;;;;;;;7.60;3.30;;;;;;;21.63;25.41;100648.72;10309690;28;20050;-77
2022/04/29 14:14:40;;;;;;;6.00;3.60;;;;;;;21.09;26.86;100652.84;10309072;28;20176;-77
2022/04/29 14:19:43;;;;;;;7.40;3.08;;;;;;;20.71;26.90;100634.25;10334022;28;20054;-77
2022/04/29 14:24:45;;;;;;;7.65;3.22;;;;;;;20.98;25.91;100630.91;10326216;28;20136;-77
2022/04/29 14:29:48;;;;;;;6.95;3.00;;;;;;;21.14;25.04;100627.66;10340813;28;20076;-77
2022/04/29 14:34:55;;;;;;;7.70;3.08;;;;;;;21.42;25.65;100622.31;10335693;28;20177;-77
2022/04/29 14:39:59;;;;;;;6.13;2.80;;;;;;;21.39;26.41;100614.63;10328571;28;20516;-77
2022/04/29 14:45:02;;;;;;;5.55;2.80;;;;;;;21.30;25.85;100615.44;10334129;28;20054;-77
2022/04/29 14:50:06;;;;;;;4.53;2.70;;;;;;;21.25;25.88;100606.22;10327924;28;20054;-78
2022/04/29 14:55:11;;;;;;;5.70;2.75;;;;;;;20.94;26.31;100603.75;10314037;28;20502;-77
2022/04/29 15:00:15;;;;;;;6.85;3.20;;;;;;;20.72;25.57;100603.22;10322319;28;20054;-77
2022/04/29 15:05:17;;;;;;;6.03;2.92;;;;;;;20.59;25.73;100595.50;10333759;28;20057;-77
2022/04/29 15:15:45;;;;;;;6.38;2.90;;;;;;;20.97;27.42;100592.81;10307919;28;20329;-75
2022/04/29 15:20:47;;;;;;;6.82;3.17;;;;;;;20.81;27.59;100603.19;10319582;28;20062;-75
2022/04/29 15:25:50;;;;;;;4.10;2.53;;;;;;;20.87;27.82;100594.66;10315412;28;20508;-75
2022/04/29 15:30:53;;;;;;;4.97;2.80;;;;;;;20.97;26.97;100581.34;10306525;28;20085;-75
2022/04/29 15:35:57;;;;;;;8.30;2.70;;;;;;;21.15;27.42;100584.94;10308642;28;20054;-75
2022/04/29 15:41:02;;;;;;;7.25;2.53;;;;;;;21.42;26.26;100585.06;10326911;28;20115;-76
2022/04/29 15:46:03;;;;;;;4.82;2.33;;;;;;;21.56;26.76;100584.56;10324907;28;20487;-75
2022/04/29 15:51:05;;;;;;;4.95;2.60;;;;;;;21.85;25.97;100577.31;10311491;28;20054;-76
2022/04/29 15:56:07;;;;;;;5.07;2.65;;;;;;;21.79;25.84;100582.38;10314191;28;20484;-76
2022/04/29 16:01:09;;;;;;;7.40;2.47;;;;;;;21.63;25.24;100564.38;10345933;28;20057;-77
2022/04/29 16:06:11;;;;;;;7.40;2.80;;;;;;;21.11;26.07;100561.47;10332071;28;20057;-77
2022/04/29 16:11:13;;;;;;;5.10;2.40;;;;;;;20.56;27.69;100555.88;10323368;28;20554;-76
2022/04/29 16:16:15;;;;;;;5.00;2.40;;;;;;;20.27;27.54;100555.03;10320706;28;20396;-77
2022/04/29 16:21:23;;;;;;;4.00;2.40;;;;;;;20.12;28.71;100551.94;10311843;28;20054;-76
2022/04/29 16:26:26;;;;;;;4.65;2.22;;;;;;;20.01;28.01;100556.53;10336175;28;20471;-76
2022/04/29 16:31:28;;;;;;;8.23;2.35;;;;;;;19.81;28.59;100563.59;10327918;28;20054;-76
2022/04/29 16:36:31;;;;;;;6.25;2.50;;;;;;;19.79;29.89;100559.34;10313873;28;20053;-76
2022/04/29 16:41:33;;;;;;;10.82;2.90;;;;;;;19.73;30.07;100552.78;10316611;28;20104;-76
2022/04/29 16:46:35;;;;;;;7.35;3.30;;;;;;;19.52;30.48;100556.47;10338480;28;20340;-76
2022/04/29 16:51:37;;;;;;;7.07;3.03;;;;;;;19.21;31.97;100556.47;10319633;28;20581;-76
2022/04/29 17:02:00;;;;;;;9.88;4.60;;;;;;;18.68;34.25;100562.78;10341439;28;20530;-77
2022/04/29 17:07:02;;;;;;;10.82;5.20;;;;;;;18.55;35.03;100559.47;10304565;28;20603;-76
2022/04/29 17:12:05;;;;;;;10.32;5.60;;;;;;;18.28;35.89;100559.09;10343035;28;20053;-76
2022/04/29 17:17:07;;;;;;;11.23;6.75;;;;;;;18.04;36.76;100558.41;10344603;28;20066;-76
2022/04/29 17:22:08;;;;;;;13.45;7.10;;;;;;;17.77;37.48;100558.81;10320330;28;20062;-76
2022/04/29 17:27:10;;;;;;;11.40;7.68;;;;;;;17.61;38.19;100576.84;10336979;28;20155;-76
2022/04/29 17:32:13;;;;;;;15.10;8.63;;;;;;;17.45;38.47;100571.94;10351320;28;20147;-77
2022/04/29 17:37:16;;;;;;;15.25;8.32;;;;;;;17.25;39.28;100564.66;10330851;28;20473;-76
2022/04/29 17:42:48;;;;;;;18.75;8.70;;;;;;;17.11;40.41;100572.81;10339288;28;20088;-76
2022/04/29 17:47:50;;;;;;;20.35;9.40;;;;;;;16.93;40.69;100574.22;10343231;28;20054;-76
2022/04/29 17:52:54;;;;;;;18.88;9.98;;;;;;;16.85;41.14;100573.97;10324350;28;20058;-76
2022/04/29 17:57:57;;;;;;;18.98;9.07;;;;;;;16.90;41.12;100579.72;10324734;28;20061;-76
2022/04/29 18:02:59;;;;;;;21.60;10.07;;;;;;;16.68;41.75;100575.22;10317560;28;20323;-76
2022/04/29 18:08:01;;;;;;;17.65;9.68;;;;;;;16.65;41.56;100570.16;10308264;28;20137;-76
2022/04/29 18:13:04;;;;;;;17.50;9.68;;;;;;;16.44;42.41;100576.22;10321665;28;20054;-76
2022/04/29 18:18:06;;;;;;;12.82;9.32;;;;;;;16.37;42.33;100585.50;10328374;28;20050;-76
2022/04/29 18:23:10;;;;;;;28.00;12.25;;;;;;;16.31;42.67;100585.94;10341243;28;20058;-76
2022/04/29 18:28:15;;;;;;;15.50;8.20;;;;;;;16.19;43.02;100599.09;10338964;28;20090;-76
2022/04/29 18:33:17;;;;;;;18.52;8.45;;;;;;;16.21;43.07;100601.59;10332074;28;20089;-76
2022/04/29 18:38:19;;;;;;;18.20;8.95;;;;;;;16.16;43.05;100599.28;10342435;28;20115;-76
2022/04/29 18:43:20;;;;;;;17.13;8.65;;;;;;;16.13;43.52;100606.59;10333624;28;20570;-76
2022/04/29 18:48:22;;;;;;;17.60;8.23;;;;;;;16.09;44.13;100607.78;10326950;28;20053;-76
2022/04/29 18:53:24;;;;;;;18.92;8.05;;;;;;;15.89;44.45;100613.63;10341490;28;20512;-76
2022/04/29 18:58:27;;;;;;;14.95;7.28;;;;;;;15.83;45.30;100617.56;10314867;28;20078;-76
2022/04/29 19:03:30;;;;;;;15.60;7.55;;;;;;;15.65;45.54;100629.41;10309566;28;20105;-76
2022/04/29 19:08:32;;;;;;;14.90;7.32;;;;;;;15.55;45.63;100633.59;10324711;28;20051;-76
2022/04/29 19:13:34;;;;;;;15.90;7.88;;;;;;;15.50;45.82;100635.72;10327714;28;20051;-76
2022/04/29 19:18:36;;;;;;;17.63;8.18;;;;;;;15.45;46.06;100636.97;10327903;28;20050;-76
2022/04/29 19:23:38;;;;;;;16.40;8.50;;;;;;;15.41;46.32;100634.53;10333974;28;20132;-76
2022/04/29 19:28:41;;;;;;;14.70;7.72;;;;;;;15.39;46.30;100644.31;10311835;28;20054;-76
2022/04/29 19:33:44;;;;;;;16.15;7.75;;;;;;;15.39;46.42;100648.75;10330013;28;20405;-76
2022/04/29 19:38:47;;;;;;;19.98;8.13;;;;;;;15.34;46.50;100642.97;10333569;28;20077;-76
2022/04/29 19:43:52;;;;;;;15.57;8.02;;;;;;;15.21;46.71;100650.00;10317450;28;20324;-76
2022/04/29 19:48:54;;;;;;;17.10;8.77;;;;;;;15.14;46.59;100641.66;10312885;28;20046;-76
2022/04/29 19:53:55;;;;;;;18.33;9.20;;;;;;;15.06;46.83;100636.06;10323155;28;20137;-76
2022/04/29 19:59:13;;;;;;;17.02;9.50;;;;;;;14.93;46.89;100644.88;10338415;28;20065;-76
2022/04/29 20:04:17;;;;;;;21.63;10.82;;;;;;;14.83;47.22;100652.56;10328224;28;20500;-76
2022/04/29 20:09:21;;;;;;;19.58;10.55;;;;;;;14.69;47.01;100654.41;10324106;28;20499;-76
2022/04/29 20:14:22;;;;;;;20.80;11.43;;;;;;;14.55;47.28;100663.22;10329978;28;20132;-76
2022/04/29 20:19:24;;;;;;;24.73;11.63;;;;;;;14.50;47.32;100674.03;10338192;28;20500;-76
2022/04/29 20:24:26;;;;;;;21.25;12.68;;;;;;;14.44;47.07;100682.28;10322750;28;20477;-76
2022/04/29 20:29:28;;;;;;;21.08;12.10;;;;;;;14.34;47.63;100698.75;10311502;28;20054;-76
2022/04/29 20:34:29;;;;;;;20.95;12.43;;;;;;;14.43;47.28;100704.25;10336892;28;20120;-76
2022/04/29 20:44:52;;;;;;;23.30;12.75;;;;;;;14.22;47.15;100710.91;10321062;28;20163;-76
2022/04/29 20:49:54;;;;;;;19.30;13.02;;;;;;;14.12;47.07;100715.03;10331986;28;20105;-76
2022/04/29 20:54:55;;;;;;;21.92;12.80;;;;;;;14.10;46.98;100716.94;10339475;28;20058;-76
2022/04/29 20:59:57;;;;;;;20.90;12.32;;;;;;;14.16;46.77;100720.94;10314572;28;20054;-76
2022/04/29 21:04:59;;;;;;;24.25;13.57;;;;;;;14.08;46.48;100718.81;10328170;28;20108;-76
2022/04/29 21:10:01;;;;;;;22.83;12.93;;;;;;;13.86;46.98;100725.47;10323571;28;20046;-76
2022/04/29 21:15:05;;;;;;;20.90;12.85;;;;;;;13.92;46.77;100710.16;10310320;28;20054;-76
2022/04/29 21:20:08;;;;;;;22.13;13.65;;;;;;;13.78;46.94;100715.38;10315924;28;20454;-76
2022/04/29 21:25:10;;;;;;;22.52;13.90;;;;;;;13.69;47.48;100723.84;10340863;28;20089;-76
2022/04/29 21:35:32;;;;;;;23.30;13.85;;;;;;;13.52;48.40;100724.00;10350534;28;20114;-76
2022/04/29 21:40:34;;;;;;;17.52;12.88;;;;;;;13.52;48.60;100729.25;10338702;28;20151;-76
2022/04/29 21:45:36;;;;;;;21.67;13.23;;;;;;;13.46;47.87;100730.47;10337092;28;20078;-76
2022/04/29 21:50:39;;;;;;;22.50;12.55;;;;;;;13.43;47.89;100732.44;10338896;28;20053;-76
2022/04/29 21:55:40;;;;;;;17.98;11.40;;;;;;;13.46;47.89;100735.72;10318379;28;20989;-76
2022/04/29 22:00:42;;;;;;;18.42;12.27;;;;;;;13.58;47.69;100734.16;10321793;28;20112;-76
2022/04/29 22:05:44;;;;;;;20.17;11.75;;;;;;;13.57;47.98;100738.56;10338074;28;20476;-76
2022/04/29 22:10:48;;;;;;;17.92;11.48;;;;;;;13.51;47.99;100744.19;10309356;28;20460;-76
2022/04/29 22:15:51;;;;;;;21.02;12.38;;;;;;;13.41;47.36;100737.72;10329347;28;20050;-76
2022/04/29 22:20:53;;;;;;;18.60;11.88;;;;;;;13.08;48.13;100728.34;10312876;28;20109;-76
2022/04/29 22:25:54;;;;;;;21.42;12.52;;;;;;;12.93;48.35;100730.91;10344749;28;20558;-76
2022/04/29 22:30:56;;;;;;;21.92;11.93;;;;;;;13.00;48.48;100734.03;10325929;28;20113;-76
2022/04/29 22:35:58;;;;;;;25.17;11.38;;;;;;;12.88;48.66;100726.88;10312438;28;20538;-76
2022/04/29 22:41:00;;;;;;;17.88;11.07;;;;;;;12.99;48.65;100724.47;10329212;28;20133;-76
2022/04/29 22:46:07;;;;;;;17.83;11.27;;;;;;;13.02;48.27;100723.44;10319558;28;20516;-76
2022/04/29 22:51:09;;;;;;;17.85;11.77;;;;;;;13.06;47.90;100720.56;10308016;28;20058;-76
2022/04/29 22:56:10;;;;;;;20.13;10.77;;;;;;;12.94;48.04;100716.00;10307590;28;20554;-76
2022/04/29 23:01:12;;;;;;;18.02;11.05;;;;;;;12.75;47.86;100705.69;10326197;28;20054;-76
2022/04/29 23:06:14;;;;;;;18.33;10.95;;;;;;;12.86;47.84;100703.31;10314870;28;20060;-76
2022/04/29 23:11:16;;;;;;;19.63;10.43;;;;;;;12.83;47.62;100703.50;10314959;28;20054;-76
2022/04/29 23:16:18;;;;;;;25.67;10.68;;;;;;;12.62;47.22;100696.81;10324648;28;20532;-76
2022/04/29 23:21:20;;;;;;;17.05;10.65;;;;;;;12.41;47.94;100700.66;10337555;28;20504;-76
2022/04/29 23:26:23;;;;;;;16.83;10.73;;;;;;;12.47;47.88;100700.31;10311213;28;20148;-76
2022/04/29 23:31:25;;;;;;;18.90;10.40;;;;;;;12.41;47.88;100708.53;10334172;28;20421;-76
2022/04/29 23:36:27;;;;;;;19.95;9.77;;;;;;;12.46;48.17;100700.38;10310568;28;20156;-76
2022/04/29 23:41:29;;;;;;;15.50;9.93;;;;;;;12.45;47.91;100696.94;10305815;28;20172;-76
2022/04/29 23:46:31;;;;;;;16.15;9.95;;;;;;;12.44;47.34;100700.47;10304932;28;20123;-76
2022/04/29 23:51:33;;;;;;;18.58;9.77;;;;;;;12.56;47.28;100699.78;10337688;28;20049;-76
2022/04/29 23:56:35;;;;;;;20.55;10.00;;;;;;;12.54;47.28;100696.41;10319881;28;20582;-76
